Time;durP1;ratioP1;P1;durP2;ratioP2;P2;SDS_P1;SDS_P2;PMS_P1;PMS_P2;Temp;Humidity;BMP_temperature;BMP_pressure;BME280_temperature;BME280_humidity;BME280_pressure;Samples;Min_cycle;Max_cycle;Signal;HPM_P1;HPM_P2
2022/08/17 00:00:16;;;;;;;16.20;7.75;;;24.80;81.00;;;;;;4975493;28;20213;-76
2022/08/17 00:03:09;;;;;;;11.25;6.60;;;24.80;81.20;;;;;;4972401;28;20330;-78
2022/08/17 00:05:42;;;;;;;14.57;7.38;;;24.80;81.50;;;;;;4980028;28;20197;-76
2022/08/17 00:08:11;;;;;;;18.02;7.43;;;24.70;81.40;;;;;;4972907;28;20939;-75
2022/08/17 00:10:40;;;;;;;12.45;6.68;;;24.70;81.40;;;;;;4978855;28;20198;-76
2022/08/17 00:13:13;;;;;;;17.25;7.72;;;24.70;81.60;;;;;;4973910;28;20197;-75
2022/08/17 00:15:43;;;;;;;15.82;6.93;;;24.70;81.70;;;;;;4980816;28;20193;-76
2022/08/17 00:18:13;;;;;;;16.77;7.93;;;24.70;81.70;;;;;;4979008;28;20198;-75
2022/08/17 00:21:04;;;;;;;15.88;7.10;;;24.70;81.70;;;;;;4980126;28;21062;-76
2022/08/17 00:23:39;;;;;;;13.48;7.18;;;24.60;81.70;;;;;;4969832;28;20202;-76
2022/08/17 00:26:17;;;;;;;14.40;7.32;;;24.60;81.80;;;;;;4973353;28;20212;-76
2022/08/17 00:29:07;;;;;;;12.65;7.35;;;24.60;82.00;;;;;;4971607;28;20201;-75
2022/08/17 00:31:37;;;;;;;13.90;6.60;;;24.60;82.20;;;;;;4975368;28;20256;-75
2022/08/17 00:34:07;;;;;;;15.15;6.90;;;24.60;82.20;;;;;;4974327;28;20209;-76
2022/08/17 00:36:36;;;;;;;12.05;6.88;;;24.50;82.20;;;;;;4978240;28;20186;-75
2022/08/17 00:39:05;;;;;;;10.80;6.55;;;24.60;82.20;;;;;;4974143;28;20445;-76
2022/08/17 00:41:34;;;;;;;10.52;6.88;;;24.60;82.20;;;;;;4982234;28;20284;-76
2022/08/17 00:44:08;;;;;;;17.23;7.80;;;24.50;82.20;;;;;;4981775;28;20213;-76
2022/08/17 00:46:42;;;;;;;21.15;8.18;;;24.50;82.50;;;;;;4974483;28;20205;-78
2022/08/17 00:49:12;;;;;;;13.68;7.68;;;24.50;82.60;;;;;;4983287;28;20224;-80
2022/08/17 00:51:44;;;;;;;16.77;7.07;;;24.50;82.70;;;;;;4983068;28;20216;-76
2022/08/17 00:54:18;;;;;;;12.02;7.00;;;24.50;82.90;;;;;;4980518;28;20196;-75
2022/08/17 00:56:50;;;;;;;12.75;7.32;;;24.40;82.90;;;;;;4979791;28;20205;-76
2022/08/17 00:59:23;;;;;;;14.95;8.40;;;24.40;82.90;;;;;;4977019;28;20446;-76
2022/08/17 01:01:51;;;;;;;13.63;7.47;;;24.40;83.50;;;;;;4976298;28;20201;-75
2022/08/17 01:04:22;;;;;;;14.73;7.40;;;24.40;83.30;;;;;;4977458;28;20312;-76
2022/08/17 01:06:51;;;;;;;10.75;6.22;;;24.40;83.20;;;;;;4979915;28;20205;-76
2022/08/17 01:09:21;;;;;;;11.73;7.25;;;24.40;83.20;;;;;;4976524;28;20220;-76
2022/08/17 01:11:51;;;;;;;13.70;7.05;;;24.40;83.10;;;;;;4979109;28;20667;-76
2022/08/17 01:14:21;;;;;;;15.27;6.70;;;24.40;83.20;;;;;;4981345;28;20919;-76
2022/08/17 01:16:51;;;;;;;20.30;7.30;;;24.30;83.20;;;;;;4981148;28;20221;-77
2022/08/17 01:19:22;;;;;;;13.88;6.80;;;24.30;83.20;;;;;;4976819;28;20196;-76
2022/08/17 01:21:57;;;;;;;13.50;7.75;;;24.30;83.20;;;;;;4973420;28;20197;-76
2022/08/17 01:24:28;;;;;;;10.05;6.82;;;24.30;83.20;;;;;;4974060;28;20360;-76
2022/08/17 01:26:57;;;;;;;14.18;6.53;;;24.30;83.20;;;;;;4978448;28;20224;-76
2022/08/17 01:29:29;;;;;;;10.10;6.43;;;24.30;83.20;;;;;;4979849;28;20200;-76
2022/08/17 01:32:02;;;;;;;16.52;7.18;;;24.30;83.20;;;;;;4977792;28;20221;-76
2022/08/17 01:34:31;;;;;;;11.32;7.15;;;24.30;83.20;;;;;;4983596;28;20205;-76
2022/08/17 01:37:18;;;;;;;10.55;6.90;;;24.30;83.10;;;;;;4981031;28;20333;-76
2022/08/17 01:39:50;;;;;;;11.25;6.57;;;24.30;83.20;;;;;;4975679;28;20193;-76
2022/08/17 01:42:23;;;;;;;13.15;7.13;;;24.30;83.20;;;;;;4981824;28;20197;-76
2022/08/17 01:44:57;;;;;;;13.18;6.78;;;24.30;83.20;;;;;;4980576;28;20236;-75
2022/08/17 01:47:26;;;;;;;14.10;6.82;;;24.30;83.40;;;;;;4981543;28;20186;-76
2022/08/17 01:49:56;;;;;;;10.60;7.20;;;24.20;83.30;;;;;;4980408;28;20197;-76
2022/08/17 01:52:27;;;;;;;11.00;6.90;;;24.20;83.30;;;;;;4984079;28;20216;-76
2022/08/17 01:54:57;;;;;;;15.23;6.68;;;24.20;83.20;;;;;;4973147;28;20223;-75
2022/08/17 01:57:25;;;;;;;12.98;6.88;;;24.20;83.30;;;;;;4974300;28;20190;-75
2022/08/17 01:59:54;;;;;;;12.75;6.95;;;24.20;83.30;;;;;;4972790;28;20193;-75
2022/08/17 02:02:23;;;;;;;12.35;7.00;;;24.20;83.30;;;;;;4977513;28;20423;-76
2022/08/17 02:04:59;;;;;;;12.48;6.60;;;24.10;83.30;;;;;;4977605;28;20941;-76
2022/08/17 02:07:28;;;;;;;17.55;7.45;;;24.10;83.30;;;;;;4979395;28;20201;-77
2022/08/17 02:09:58;;;;;;;16.17;7.35;;;24.10;83.30;;;;;;4982153;28;20193;-76
2022/08/17 02:12:26;;;;;;;12.32;6.35;;;24.10;83.30;;;;;;4973993;28;20698;-77
2022/08/17 02:15:11;;;;;;;14.48;7.45;;;24.10;83.40;;;;;;4970688;28;20203;-76
2022/08/17 02:17:43;;;;;;;14.55;6.97;;;24.10;83.40;;;;;;4975666;28;20224;-76
2022/08/17 02:20:12;;;;;;;12.27;6.65;;;24.00;83.40;;;;;;4974786;28;20205;-75
2022/08/17 02:22:43;;;;;;;11.38;7.07;;;24.00;83.40;;;;;;4976662;28;20203;-77
2022/08/17 02:25:17;;;;;;;13.07;6.78;;;24.00;83.60;;;;;;4977822;28;20212;-76
2022/08/17 02:27:46;;;;;;;10.55;7.05;;;23.90;83.60;;;;;;4978097;28;20197;-76
2022/08/17 02:30:15;;;;;;;10.98;6.72;;;23.90;83.60;;;;;;4974886;28;20201;-76
2022/08/17 02:33:05;;;;;;;12.60;6.53;;;23.90;83.70;;;;;;4972194;28;20312;-77
2022/08/17 02:35:37;;;;;;;14.95;7.03;;;23.90;83.80;;;;;;4974547;28;20193;-76
2022/08/17 02:38:05;;;;;;;11.23;5.78;;;23.90;83.80;;;;;;4981108;28;20199;-76
2022/08/17 02:40:39;;;;;;;12.05;6.95;;;23.80;83.90;;;;;;4980078;28;20691;-75
2022/08/17 02:43:09;;;;;;;10.15;7.03;;;23.80;84.80;;;;;;4969483;28;20203;-76
2022/08/17 02:45:37;;;;;;;14.40;6.97;;;23.80;84.10;;;;;;4976081;28;20224;-76
2022/08/17 02:48:06;;;;;;;12.23;6.95;;;23.80;84.10;;;;;;4974015;28;20212;-76
2022/08/17 02:50:34;;;;;;;10.70;6.75;;;23.80;84.10;;;;;;4972360;28;20228;-77
2022/08/17 02:53:04;;;;;;;12.95;7.40;;;23.80;84.50;;;;;;4970330;28;20816;-76
2022/08/17 02:55:40;;;;;;;12.93;6.93;;;23.70;84.60;;;;;;4979542;28;20185;-76
2022/08/17 02:58:09;;;;;;;15.27;6.95;;;23.70;84.60;;;;;;4976066;28;20643;-76
2022/08/17 03:00:45;;;;;;;12.35;6.95;;;23.70;84.60;;;;;;4976571;28;20185;-77
2022/08/17 03:03:17;;;;;;;13.30;7.55;;;23.70;84.60;;;;;;4967970;28;20705;-76
2022/08/17 03:05:46;;;;;;;12.88;6.45;;;23.70;84.60;;;;;;4973709;28;20206;-76
2022/08/17 03:08:16;;;;;;;13.13;7.22;;;23.70;84.60;;;;;;4971839;28;20341;-76
2022/08/17 03:10:46;;;;;;;12.50;7.53;;;23.70;84.60;;;;;;4981796;28;20212;-75
2022/08/17 03:13:15;;;;;;;11.95;7.00;;;23.60;84.60;;;;;;4968854;28;20190;-76
2022/08/17 03:15:45;;;;;;;12.48;6.35;;;23.60;84.70;;;;;;4977892;28;20196;-76
2022/08/17 03:18:16;;;;;;;15.32;8.02;;;23.60;84.80;;;;;;4979909;28;20192;-75
2022/08/17 03:20:53;;;;;;;13.38;6.47;;;23.60;84.80;;;;;;4979202;28;20188;-78
2022/08/17 03:23:22;;;;;;;13.77;7.18;;;23.60;85.00;;;;;;4969887;28;20197;-77
2022/08/17 03:25:55;;;;;;;14.07;8.20;;;23.60;85.20;;;;;;4981304;28;20245;-76
2022/08/17 03:28:24;;;;;;;18.40;7.63;;;23.50;85.00;;;;;;4976209;28;20185;-78
2022/08/17 03:30:52;;;;;;;11.40;6.07;;;23.50;85.20;;;;;;4978596;28;20190;-78
2022/08/17 03:33:21;;;;;;;12.60;7.05;;;23.50;85.20;;;;;;4951841;28;20333;-77
2022/08/17 03:35:49;;;;;;;11.13;6.88;;;23.50;85.20;;;;;;4952287;28;20194;-76
2022/08/17 03:38:18;;;;;;;13.15;6.47;;;23.50;85.30;;;;;;4956763;28;20197;-77
2022/08/17 03:40:49;;;;;;;11.60;6.95;;;23.50;85.40;;;;;;4952339;28;20225;-77
2022/08/17 03:43:31;;;;;;;11.75;6.68;;;23.50;85.50;;;;;;4953865;28;20190;-77
2022/08/17 03:57:21;;;;;;;14.20;6.55;;;23.40;85.90;;;;;;4953059;28;20743;-77
2022/08/17 03:59:51;;;;;;;15.40;7.28;;;23.40;85.90;;;;;;4954721;28;20198;-78
2022/08/17 04:02:24;;;;;;;12.45;6.95;;;23.50;86.10;;;;;;4951101;28;20190;-77
2022/08/17 04:04:54;;;;;;;14.40;8.20;;;23.50;86.20;;;;;;4955092;28;20544;-78
2022/08/17 04:07:26;;;;;;;13.32;7.57;;;23.50;88.00;;;;;;4956947;28;20300;-77
2022/08/17 04:09:56;;;;;;;14.35;7.28;;;23.50;87.80;;;;;;4952539;28;20740;-77
2022/08/17 04:12:29;;;;;;;13.02;7.35;;;23.50;87.80;;;;;;4955707;28;20192;-77
2022/08/17 04:15:00;;;;;;;13.57;7.43;;;23.50;87.70;;;;;;4957928;28;20186;-78
2022/08/17 04:17:29;;;;;;;14.95;7.57;;;23.50;87.70;;;;;;4960198;28;20604;-77
2022/08/17 04:20:00;;;;;;;16.40;8.27;;;23.50;87.80;;;;;;4958117;28;20876;-76
2022/08/17 04:22:32;;;;;;;16.27;8.23;;;23.50;87.90;;;;;;4958917;28;20198;-78
2022/08/17 04:25:07;;;;;;;19.73;8.35;;;23.50;88.00;;;;;;4960393;28;20203;-78
2022/08/17 04:27:36;;;;;;;14.13;8.32;;;23.50;88.30;;;;;;4957990;28;20216;-77
2022/08/17 04:30:07;;;;;;;17.90;7.97;;;23.50;88.40;;;;;;4958922;28;20281;-77
2022/08/17 04:32:51;;;;;;;12.25;7.18;;;23.50;88.50;;;;;;4972919;28;20730;-77
2022/08/17 04:35:34;;;;;;;16.20;7.47;;;23.60;88.70;;;;;;4975169;28;20209;-77
2022/08/17 04:38:03;;;;;;;13.10;7.18;;;23.60;88.70;;;;;;4975867;28;20201;-77
2022/08/17 04:43:20;;;;;;;10.43;6.53;;;23.60;88.40;;;;;;4983171;28;21081;-78
2022/08/17 04:45:52;;;;;;;17.85;6.80;;;23.70;88.40;;;;;;4979626;28;20200;-77
2022/08/17 04:48:24;;;;;;;13.25;6.53;;;23.70;88.40;;;;;;4979218;28;20207;-77
2022/08/17 04:51:06;;;;;;;12.95;7.43;;;23.80;88.40;;;;;;4972802;28;20699;-77
2022/08/17 04:53:34;;;;;;;16.65;6.82;;;23.80;88.30;;;;;;4973838;28;20318;-77
2022/08/17 04:56:03;;;;;;;13.57;7.05;;;23.90;88.30;;;;;;4977886;28;20203;-77
2022/08/17 04:58:32;;;;;;;15.40;6.38;;;24.00;88.30;;;;;;4981028;28;20204;-77
2022/08/17 05:01:03;;;;;;;11.55;6.32;;;24.00;88.20;;;;;;4980220;28;20207;-79
2022/08/17 05:03:32;;;;;;;15.50;6.13;;;24.00;88.10;;;;;;4970841;28;20244;-78
2022/08/17 05:06:01;;;;;;;12.70;6.28;;;24.10;87.80;;;;;;4979971;28;20208;-78
2022/08/17 05:08:29;;;;;;;15.02;6.20;;;24.20;87.70;;;;;;4976145;28;20190;-77
2022/08/17 05:10:59;;;;;;;19.00;7.97;;;24.30;87.60;;;;;;4976007;28;20201;-77
2022/08/17 05:13:29;;;;;;;14.73;8.05;;;24.30;87.80;;;;;;4980734;28;20772;-77
2022/08/17 05:15:59;;;;;;;11.57;7.57;;;24.30;87.70;;;;;;4980824;28;20283;-77
2022/08/17 05:18:30;;;;;;;22.55;7.45;;;24.50;87.70;;;;;;4978385;28;20193;-77
2022/08/17 05:20:58;;;;;;;13.82;7.70;;;24.50;87.60;;;;;;4976302;28;20224;-79
2022/08/17 05:23:28;;;;;;;20.88;8.45;;;24.60;87.40;;;;;;4982978;28;20194;-77
2022/08/17 05:26:13;;;;;;;20.70;8.15;;;24.60;87.20;;;;;;4975459;28;20530;-78
2022/08/17 05:28:55;;;;;;;19.83;7.68;;;24.70;87.20;;;;;;4968304;28;20252;-75
2022/08/17 05:31:28;;;;;;;13.55;7.72;;;24.80;87.10;;;;;;4977202;28;20236;-77
2022/08/17 05:33:58;;;;;;;13.85;7.15;;;24.80;87.00;;;;;;4979838;28;20648;-76
2022/08/17 05:36:26;;;;;;;15.95;8.00;;;24.90;87.00;;;;;;4984291;28;20201;-77
2022/08/17 05:39:13;;;;;;;16.40;8.20;;;24.90;87.10;;;;;;4979564;28;20272;-79
2022/08/17 05:41:46;;;;;;;21.67;7.38;;;25.00;86.90;;;;;;4977244;28;20194;-77
2022/08/17 05:44:14;;;;;;;18.15;8.25;;;25.00;86.90;;;;;;4981647;28;20200;-76
2022/08/17 05:46:47;;;;;;;19.55;7.75;;;25.10;86.80;;;;;;4979251;28;20232;-78
2022/08/17 05:49:22;;;;;;;16.73;7.40;;;25.20;86.80;;;;;;4975311;28;20187;-76
2022/08/17 05:52:09;;;;;;;14.52;7.40;;;25.20;86.70;;;;;;4978530;28;20212;-75
2022/08/17 05:54:51;;;;;;;15.57;7.10;;;25.30;86.70;;;;;;4976689;28;20232;-76
2022/08/17 05:57:36;;;;;;;19.23;7.93;;;25.40;86.70;;;;;;4981199;28;20194;-76
2022/08/17 06:00:15;;;;;;;20.65;9.15;;;25.40;86.70;;;;;;4980199;28;20477;-76
2022/08/17 06:03:10;;;;;;;14.27;7.30;;;25.50;86.80;;;;;;4979806;28;20292;-76
2022/08/17 06:06:00;;;;;;;16.25;7.57;;;25.50;86.70;;;;;;4971765;28;20197;-77
2022/08/17 06:08:35;;;;;;;18.73;7.53;;;25.50;86.20;;;;;;4983201;28;20300;-77
2022/08/17 06:11:22;;;;;;;17.55;6.78;;;25.60;85.80;;;;;;4975746;28;20200;-78
2022/08/17 06:14:02;;;;;;;15.13;7.85;;;25.60;85.80;;;;;;4978411;28;20194;-76
2022/08/17 06:16:35;;;;;;;13.70;7.10;;;25.70;85.80;;;;;;4976919;28;20196;-77
2022/08/17 06:19:11;;;;;;;16.05;7.00;;;25.70;85.60;;;;;;4976231;28;20197;-77
2022/08/17 06:21:44;;;;;;;14.88;7.07;;;25.70;85.50;;;;;;4976180;28;20656;-75
2022/08/17 06:24:23;;;;;;;16.92;8.15;;;25.80;85.50;;;;;;4975534;28;20644;-76
2022/08/17 06:26:53;;;;;;;12.60;7.10;;;25.90;85.50;;;;;;4978892;28;20193;-74
2022/08/17 06:29:38;;;;;;;15.25;6.85;;;25.90;85.50;;;;;;4975729;28;20198;-75
2022/08/17 06:32:10;;;;;;;11.68;6.72;;;26.00;85.30;;;;;;4972233;28;20222;-75
2022/08/17 06:34:41;;;;;;;14.32;6.63;;;26.10;85.10;;;;;;4977405;28;20285;-75
2022/08/17 06:37:24;;;;;;;12.63;6.38;;;26.10;84.70;;;;;;4976423;28;20212;-75
2022/08/17 06:40:01;;;;;;;9.70;5.82;;;26.20;83.90;;;;;;4974556;28;20189;-74
2022/08/17 06:42:43;;;;;;;8.60;5.53;;;26.20;83.60;;;;;;4969225;28;20212;-75
2022/08/17 06:45:37;;;;;;;11.20;6.50;;;26.30;83.70;;;;;;4977932;28;20200;-76
2022/08/17 06:48:23;;;;;;;10.07;6.25;;;26.30;83.10;;;;;;4972687;28;20224;-76
2022/08/17 06:50:54;;;;;;;8.23;5.22;;;26.40;83.00;;;;;;4970103;28;20280;-75
2022/08/17 06:53:28;;;;;;;10.05;5.30;;;26.40;82.90;;;;;;4979980;28;20666;-77
2022/08/17 06:56:01;;;;;;;8.60;5.18;;;26.50;82.70;;;;;;4973656;28;20199;-75
2022/08/17 06:58:32;;;;;;;10.80;6.50;;;26.60;82.60;;;;;;4970808;28;21242;-76
2022/08/17 07:01:09;;;;;;;10.13;5.03;;;26.70;82.20;;;;;;4972125;28;20755;-75
2022/08/17 07:03:45;;;;;;;11.82;5.50;;;26.70;81.90;;;;;;4981296;28;20272;-76
2022/08/17 07:06:18;;;;;;;8.32;4.90;;;26.80;81.80;;;;;;4974634;28;20201;-76
2022/08/17 07:08:53;;;;;;;10.30;5.20;;;26.90;81.30;;;;;;4981979;28;20208;-76
2022/08/17 07:11:27;;;;;;;9.80;5.32;;;27.00;80.80;;;;;;4980826;28;20195;-76
2022/08/17 07:14:05;;;;;;;10.57;5.00;;;27.00;80.00;;;;;;4975412;28;20204;-76
2022/08/17 07:16:39;;;;;;;14.93;5.32;;;27.10;80.00;;;;;;4974385;28;20194;-76
2022/08/17 07:19:08;;;;;;;10.88;4.78;;;27.20;79.80;;;;;;4981115;28;20184;-77
2022/08/17 07:21:47;;;;;;;7.47;4.72;;;27.20;79.10;;;;;;4981606;28;20204;-78
2022/08/17 07:24:34;;;;;;;10.18;5.60;;;27.30;78.90;;;;;;4979837;28;20448;-78
2022/08/17 07:27:10;;;;;;;7.32;4.57;;;27.50;77.90;;;;;;4974992;28;20292;-77
2022/08/17 07:29:46;;;;;;;7.63;4.65;;;27.50;77.30;;;;;;4990365;28;20197;-77
2022/08/17 07:32:19;;;;;;;7.90;4.88;;;27.60;76.90;;;;;;4982068;28;20224;-78
2022/08/17 07:35:16;;;;;;;9.43;4.68;;;27.70;76.50;;;;;;4968107;28;20189;-79
2022/08/17 07:37:54;;;;;;;6.28;4.30;;;27.70;75.80;;;;;;4930437;28;20235;-78
2022/08/17 07:40:29;;;;;;;7.60;4.97;;;27.80;74.20;;;;;;4987989;28;20208;-77
2022/08/17 07:43:02;;;;;;;8.52;4.75;;;27.80;74.20;;;;;;4971272;28;20200;-77
2022/08/17 07:48:24;;;;;;;6.32;4.45;;;28.00;72.00;;;;;;4977254;28;20224;-75
2022/08/17 07:50:53;;;;;;;7.63;4.15;;;28.10;71.50;;;;;;4978725;28;20199;-77
2022/08/17 07:53:26;;;;;;;8.25;4.18;;;28.20;71.10;;;;;;4975234;28;20643;-77
2022/08/17 07:55:56;;;;;;;6.82;4.22;;;28.30;71.40;;;;;;4973175;28;20205;-75
2022/08/17 07:58:25;;;;;;;10.68;4.80;;;28.30;71.70;;;;;;4972154;28;20879;-75
2022/08/17 08:01:08;;;;;;;8.98;4.82;;;28.40;71.60;;;;;;4982101;28;20304;-77
2022/08/17 08:03:42;;;;;;;8.93;4.70;;;28.50;71.00;;;;;;4977114;28;20201;-77
2022/08/17 08:06:20;;;;;;;6.88;4.50;;;28.60;71.10;;;;;;4979947;28;20203;-75
2022/08/17 08:08:53;;;;;;;6.68;4.70;;;28.70;71.20;;;;;;4977567;28;20814;-76
2022/08/17 08:11:36;;;;;;;7.50;4.07;;;28.70;70.90;;;;;;4983392;28;20267;-76
2022/08/17 08:14:24;;;;;;;9.23;4.22;;;28.90;71.00;;;;;;4978896;28;20189;-77
2022/08/17 08:16:59;;;;;;;6.43;3.72;;;28.90;70.10;;;;;;4984341;28;20189;-75
2022/08/17 08:19:29;;;;;;;5.78;3.83;;;29.00;69.40;;;;;;4986694;28;20193;-75
2022/08/17 08:22:06;;;;;;;7.97;4.47;;;29.00;69.30;;;;;;4976451;28;20697;-77
2022/08/17 08:24:52;;;;;;;6.30;4.53;;;29.10;68.90;;;;;;4976834;28;20194;-75
2022/08/17 08:27:32;;;;;;;7.78;4.40;;;29.20;67.70;;;;;;4977129;28;20202;-76
2022/08/17 08:30:06;;;;;;;8.73;4.10;;;29.20;67.40;;;;;;4983446;28;20208;-75
2022/08/17 08:33:08;;;;;;;6.18;4.25;;;29.30;67.70;;;;;;4986589;28;20228;-76
2022/08/17 08:35:44;;;;;;;7.25;3.90;;;29.40;67.70;;;;;;4980406;28;20231;-75
2022/08/17 08:38:22;;;;;;;8.63;3.70;;;29.50;66.50;;;;;;4978366;28;20204;-77
2022/08/17 08:41:06;;;;;;;9.07;4.00;;;29.60;64.70;;;;;;4987314;28;20196;-75
2022/08/17 08:43:43;;;;;;;6.75;4.43;;;29.60;64.90;;;;;;4973181;28;20287;-77
2022/08/17 08:46:29;;;;;;;8.32;4.80;;;29.70;64.40;;;;;;4983907;28;20794;-76
2022/08/17 08:49:16;;;;;;;6.47;4.43;;;29.70;65.00;;;;;;4981981;28;20221;-77
2022/08/17 08:51:54;;;;;;;5.90;4.38;;;29.80;65.30;;;;;;4974709;28;20200;-75
2022/08/17 08:54:36;;;;;;;9.25;4.50;;;29.90;64.90;;;;;;4977822;28;20656;-77
2022/08/17 08:57:16;;;;;;;8.68;3.85;;;29.90;65.00;;;;;;4969556;28;20197;-77
2022/08/17 09:00:12;;;;;;;5.95;4.00;;;30.00;64.70;;;;;;4979428;28;20449;-76
2022/08/17 09:03:10;;;;;;;5.82;4.03;;;30.10;64.30;;;;;;4982775;28;20304;-75
2022/08/17 09:06:07;;;;;;;5.50;3.70;;;30.10;63.80;;;;;;4961533;28;20263;-75
2022/08/17 09:09:09;;;;;;;5.38;3.90;;;30.20;63.40;;;;;;4972518;28;20229;-77
2022/08/17 09:11:48;;;;;;;6.65;3.80;;;30.30;62.60;;;;;;4974070;28;20224;-77
2022/08/17 09:14:38;;;;;;;5.82;3.92;;;30.30;62.30;;;;;;4976656;28;20201;-76
2022/08/17 09:17:20;;;;;;;6.80;3.70;;;30.40;62.50;;;;;;4976585;28;20197;-76
2022/08/17 09:19:54;;;;;;;8.40;4.07;;;30.50;62.70;;;;;;4977510;28;20196;-76
2022/08/17 09:22:30;;;;;;;6.20;3.83;;;30.50;61.80;;;;;;4974466;28;20768;-75
2022/08/17 09:25:06;;;;;;;9.50;3.97;;;30.60;61.80;;;;;;4977829;28;20201;-75
2022/08/17 09:27:47;;;;;;;7.65;3.78;;;30.70;61.40;;;;;;4971467;28;20189;-75
2022/08/17 09:30:18;;;;;;;6.47;3.90;;;30.70;60.60;;;;;;4978411;28;20209;-77
2022/08/17 09:32:54;;;;;;;5.53;3.72;;;30.70;59.30;;;;;;4972893;28;20223;-74
2022/08/17 09:35:28;;;;;;;9.60;3.45;;;30.80;58.80;;;;;;4983158;28;20275;-77
2022/08/17 09:38:14;;;;;;;4.72;3.45;;;30.80;58.70;;;;;;4979215;28;20554;-76
2022/08/17 09:40:51;;;;;;;5.78;4.03;;;30.90;58.40;;;;;;4972756;28;20306;-78
2022/08/17 09:43:31;;;;;;;5.22;3.78;;;30.90;58.20;;;;;;4981282;28;20200;-76
2022/08/17 09:46:10;;;;;;;8.10;4.13;;;31.00;58.10;;;;;;4968375;28;20324;-78
2022/08/17 09:48:45;;;;;;;5.85;3.35;;;31.00;58.40;;;;;;4978734;28;20224;-76
2022/08/17 09:51:21;;;;;;;5.30;3.97;;;31.10;59.00;;;;;;4979333;28;20239;-78
2022/08/17 09:53:50;;;;;;;6.72;3.90;;;31.20;59.30;;;;;;4976679;28;20725;-75
2022/08/17 09:56:35;;;;;;;4.97;3.60;;;31.20;57.40;;;;;;4972590;28;20297;-76
2022/08/17 09:59:26;;;;;;;5.38;3.90;;;31.20;57.00;;;;;;4976334;28;20189;-79
2022/08/17 10:02:16;;;;;;;5.47;3.20;;;31.20;57.50;;;;;;4983551;28;20371;-77
2022/08/17 10:04:54;;;;;;;5.93;3.65;;;31.30;58.10;;;;;;4974017;28;20757;-78
2022/08/17 10:07:29;;;;;;;5.38;3.80;;;31.40;58.20;;;;;;4980093;28;20312;-77
2022/08/17 10:10:02;;;;;;;4.75;3.53;;;31.50;58.20;;;;;;4977520;28;20744;-77
2022/08/17 10:12:38;;;;;;;6.95;4.25;;;31.50;58.10;;;;;;4976077;28;21020;-78
2022/08/17 10:15:23;;;;;;;4.55;3.50;;;31.60;57.30;;;;;;4979910;28;20193;-76
2022/08/17 10:18:13;;;;;;;6.32;4.10;;;31.70;57.70;;;;;;4980150;28;20251;-76
2022/08/17 10:20:49;;;;;;;7.00;4.28;;;31.70;56.90;;;;;;4980501;28;20268;-78
2022/08/17 10:26:16;;;;;;;7.75;4.07;;;31.90;57.50;;;;;;4975616;28;21161;-77
2022/08/17 10:28:49;;;;;;;8.75;4.53;;;32.00;57.10;;;;;;4976505;28;20272;-78
2022/08/17 10:31:23;;;;;;;6.20;3.70;;;32.00;55.50;;;;;;4969469;28;20311;-78
2022/08/17 10:34:42;;;;;;;6.43;4.10;;;32.00;55.50;;;;;;4968213;28;20224;-78
2022/08/17 10:37:35;;;;;;;4.60;3.38;;;32.10;55.20;;;;;;4979360;28;20198;-78
2022/08/17 10:40:19;;;;;;;10.60;3.80;;;32.20;55.30;;;;;;4975416;28;20204;-77
2022/08/17 10:42:51;;;;;;;6.55;4.07;;;32.30;55.30;;;;;;4970040;28;20860;-78
2022/08/17 10:45:25;;;;;;;6.72;3.90;;;32.30;55.50;;;;;;4981175;28;20210;-79
2022/08/17 10:47:58;;;;;;;5.90;4.10;;;32.40;55.40;;;;;;4978165;28;20698;-78
2022/08/17 10:50:46;;;;;;;5.63;3.92;;;32.40;55.20;;;;;;4976810;28;20687;-78
2022/08/17 10:53:49;;;;;;;6.40;3.90;;;32.50;55.30;;;;;;4978825;28;20608;-77
2022/08/17 10:56:44;;;;;;;6.88;4.38;;;32.40;54.10;;;;;;4976318;28;20515;-77
2022/08/17 10:59:50;;;;;;;9.05;4.50;;;32.60;54.80;;;;;;4981349;28;20280;-78
2022/08/17 11:02:26;;;;;;;9.73;3.75;;;32.60;54.20;;;;;;4973882;28;20223;-79
2022/08/17 11:05:08;;;;;;;5.50;3.88;;;32.70;54.60;;;;;;4973444;28;20749;-78
2022/08/17 11:08:04;;;;;;;8.15;4.38;;;32.80;54.60;;;;;;4975419;28;20288;-78
2022/08/17 11:10:58;;;;;;;8.40;4.25;;;32.90;54.30;;;;;;4943303;28;20319;-79
2022/08/17 11:13:39;;;;;;;8.30;4.30;;;32.90;53.80;;;;;;4975530;28;20555;-79
2022/08/17 11:16:33;;;;;;;6.40;3.80;;;33.00;53.60;;;;;;4971475;28;20201;-79
2022/08/17 11:19:38;;;;;;;7.35;3.95;;;33.10;53.30;;;;;;4975733;28;20197;-80
2022/08/17 11:22:35;;;;;;;5.38;4.00;;;33.20;52.60;;;;;;4979635;28;20203;-79
2022/08/17 11:25:15;;;;;;;8.35;3.67;;;33.20;52.60;;;;;;4965765;28;20196;-80
2022/08/17 11:27:52;;;;;;;7.60;4.00;;;33.30;52.40;;;;;;4977474;28;20194;-81
2022/08/17 11:30:45;;;;;;;9.77;3.78;;;33.40;52.30;;;;;;4979834;28;20241;-77
2022/08/17 11:33:53;;;;;;;6.40;4.03;;;33.50;51.20;;;;;;4981936;28;20581;-79
2022/08/17 11:36:45;;;;;;;4.78;3.70;;;33.50;50.00;;;;;;4982269;28;20840;-79
2022/08/17 11:39:35;;;;;;;5.43;3.78;;;33.60;50.40;;;;;;4964168;28;20194;-78
2022/08/17 11:42:11;;;;;;;9.07;3.38;;;33.70;50.30;;;;;;4977952;28;20193;-77
2022/08/17 11:44:51;;;;;;;6.13;3.40;;;33.70;49.70;;;;;;4981533;28;20202;-78
2022/08/17 11:53:58;;;;;;;4.57;3.25;;;33.90;49.90;;;;;;4979017;28;20205;-78
2022/08/17 11:56:48;;;;;;;4.82;3.20;;;34.00;49.80;;;;;;4976381;28;20202;-76
2022/08/17 11:59:54;;;;;;;4.65;3.10;;;34.10;49.80;;;;;;4983438;28;20683;-76
2022/08/17 12:02:33;;;;;;;3.72;2.72;;;34.10;48.90;;;;;;4978206;28;20247;-78
2022/08/17 12:05:31;;;;;;;6.00;3.05;;;34.20;49.30;;;;;;4977223;28;20854;-77
2022/08/17 12:08:18;;;;;;;10.07;3.33;;;34.30;49.40;;;;;;4974368;28;20854;-76
2022/08/17 12:11:04;;;;;;;5.72;2.97;;;34.30;47.20;;;;;;4976552;28;20207;-75
2022/08/17 12:13:42;;;;;;;4.15;2.83;;;34.30;47.60;;;;;;4978237;28;20193;-74
2022/08/17 12:16:15;;;;;;;5.78;2.78;;;34.30;47.90;;;;;;4976200;28;20201;-74
2022/08/17 12:18:53;;;;;;;5.05;3.28;;;34.30;48.00;;;;;;4971377;28;20881;-78
2022/08/17 12:21:47;;;;;;;3.97;2.92;;;34.30;48.20;;;;;;4984758;28;20203;-78
2022/08/17 12:24:39;;;;;;;3.85;2.75;;;34.30;48.40;;;;;;4978948;28;20201;-78
2022/08/17 12:27:10;;;;;;;4.63;2.60;;;34.40;48.50;;;;;;4978717;28;20237;-77
2022/08/17 12:29:44;;;;;;;6.30;3.00;;;34.40;48.30;;;;;;4983793;28;20196;-79
2022/08/17 12:32:18;;;;;;;3.53;2.65;;;34.50;47.90;;;;;;4981224;28;20252;-78
2022/08/17 12:34:51;;;;;;;3.03;2.20;;;34.40;46.00;;;;;;4978623;28;20197;-78
2022/08/17 12:37:23;;;;;;;4.95;2.42;;;34.50;46.20;;;;;;4979179;28;20189;-78
2022/08/17 12:39:55;;;;;;;3.30;2.40;;;34.60;45.90;;;;;;4982496;28;20232;-78
2022/08/17 12:42:31;;;;;;;3.90;2.50;;;34.60;46.20;;;;;;4975755;28;20277;-77
2022/08/17 12:45:00;;;;;;;5.18;2.72;;;34.70;46.70;;;;;;4982239;28;20227;-77
2022/08/17 12:47:30;;;;;;;5.50;2.70;;;34.70;46.70;;;;;;4975736;28;20211;-77
2022/08/17 12:50:11;;;;;;;4.18;2.70;;;34.80;45.80;;;;;;4979534;28;20636;-78
2022/08/17 12:52:57;;;;;;;5.30;3.30;;;34.80;45.50;;;;;;4980350;28;20197;-78
2022/08/17 12:55:35;;;;;;;3.95;2.65;;;34.80;45.70;;;;;;4975247;28;20256;-76
2022/08/17 12:58:05;;;;;;;5.43;3.47;;;34.90;46.40;;;;;;4980119;28;20188;-76
2022/08/17 13:00:40;;;;;;;4.78;2.95;;;34.90;46.30;;;;;;4976253;28;20285;-76
2022/08/17 13:03:20;;;;;;;3.83;3.00;;;35.00;46.70;;;;;;4978840;28;20228;-79
2022/08/17 13:05:59;;;;;;;6.75;3.13;;;35.00;46.00;;;;;;4980083;28;20184;-80
2022/08/17 13:08:31;;;;;;;4.38;2.88;;;35.00;45.70;;;;;;4976354;28;20209;-79
2022/08/17 13:11:02;;;;;;;4.00;2.88;;;35.10;45.70;;;;;;4970910;28;20225;-79
2022/08/17 13:13:32;;;;;;;4.05;2.70;;;35.10;45.30;;;;;;4974506;28;20197;-77
2022/08/17 13:16:03;;;;;;;4.45;2.75;;;35.00;44.90;;;;;;4966323;28;20209;-77
2022/08/17 13:18:41;;;;;;;5.35;3.13;;;34.90;44.90;;;;;;4972510;28;20881;-77
2022/08/17 13:21:27;;;;;;;7.47;3.60;;;34.90;45.20;;;;;;4978015;28;20205;-77
2022/08/17 13:24:01;;;;;;;7.10;2.95;;;35.00;45.50;;;;;;4974929;28;20206;-77
2022/08/17 13:26:32;;;;;;;6.78;2.88;;;35.00;45.80;;;;;;4969847;28;20198;-80
2022/08/17 13:29:05;;;;;;;6.97;3.00;;;35.10;46.00;;;;;;4975825;28;20292;-81
2022/08/17 13:31:38;;;;;;;9.13;3.17;;;35.00;45.90;;;;;;4972401;28;20363;-79
2022/08/17 13:34:38;;;;;;;3.95;2.85;;;35.00;45.40;;;;;;4978961;28;20204;-78
2022/08/17 13:37:32;;;;;;;5.03;3.00;;;34.90;45.60;;;;;;4970566;28;20186;-77
2022/08/17 13:40:24;;;;;;;3.20;2.60;;;34.80;45.80;;;;;;4983630;28;20201;-78
2022/08/17 13:42:55;;;;;;;4.40;2.80;;;34.80;45.60;;;;;;4970879;28;20201;-78
2022/08/17 13:45:47;;;;;;;6.72;3.25;;;34.70;45.70;;;;;;4973255;28;20315;-79
2022/08/17 13:48:27;;;;;;;4.70;2.70;;;34.60;45.80;;;;;;4969207;28;20252;-76
2022/08/17 13:51:17;;;;;;;5.15;2.97;;;34.50;46.80;;;;;;4976069;28;20722;-76
2022/08/17 13:53:54;;;;;;;14.18;3.50;;;34.50;48.70;;;;;;4977503;28;20197;-80
2022/08/17 13:56:38;;;;;;;6.85;2.92;;;34.30;49.90;;;;;;4983510;28;20288;-78